Time;durP1;ratioP1;P1;durP2;ratioP2;P2;SDS_P1;SDS_P2;PMS_P1;PMS_P2;Temp;Humidity;BMP_temperature;BMP_pressure;BME280_temperature;BME280_humidity;BME280_pressure;Samples;Min_cycle;Max_cycle;Signal;HPM_P1;HPM_P2
2021/03/03 00:00:13;;;;;;;74.23;23.70;;;;;;;;;;6267821;22;20242;-81
2021/03/03 00:03:17;;;;;;;63.40;23.60;;;;;;;;;;6267756;22;20257;-80
2021/03/03 00:06:22;;;;;;;67.43;22.47;;;;;;;;;;6287356;22;20201;-83
2021/03/03 00:09:26;;;;;;;68.60;21.77;;;;;;;;;;6281609;22;20166;-82
2021/03/03 00:12:31;;;;;;;67.53;23.27;;;;;;;;;;6277133;22;20224;-81
2021/03/03 00:15:36;;;;;;;72.30;24.70;;;;;;;;;;6273787;22;20632;-81
2021/03/03 00:18:41;;;;;;;72.77;23.03;;;;;;;;;;6269372;22;20173;-80
2021/03/03 00:21:45;;;;;;;70.00;23.27;;;;;;;;;;6286209;22;20239;-81
2021/03/03 00:24:50;;;;;;;72.07;23.63;;;;;;;;;;6287613;22;20216;-81
2021/03/03 00:27:54;;;;;;;69.20;24.27;;;;;;;;;;6269111;22;20178;-81
2021/03/03 00:31:00;;;;;;;67.40;22.70;;;;;;;;;;6270227;22;20177;-79
2021/03/03 00:34:05;;;;;;;72.70;23.73;;;;;;;;;;6281899;22;20193;-82
2021/03/03 00:37:09;;;;;;;74.00;24.03;;;;;;;;;;6291949;22;20205;-82
2021/03/03 00:40:14;;;;;;;74.27;24.23;;;;;;;;;;6271700;22;20189;-79
2021/03/03 00:43:19;;;;;;;75.83;24.60;;;;;;;;;;6275153;22;20189;-79
2021/03/03 00:46:24;;;;;;;71.20;23.47;;;;;;;;;;6286441;22;20248;-79
2021/03/03 00:49:32;;;;;;;68.27;24.20;;;;;;;;;;6287176;22;20146;-80
2021/03/03 00:52:37;;;;;;;83.77;25.27;;;;;;;;;;6287192;22;20173;-79
2021/03/03 00:55:42;;;;;;;77.73;23.83;;;;;;;;;;6304785;22;20220;-80
2021/03/03 00:58:50;;;;;;;77.03;24.13;;;;;;;;;;6285234;22;20213;-81
2021/03/03 01:02:06;;;;;;;78.83;24.83;;;;;;;;;;6278432;22;20174;-79
2021/03/03 01:05:11;;;;;;;71.83;24.90;;;;;;;;;;6274400;22;20237;-80
2021/03/03 01:08:17;;;;;;;74.47;23.40;;;;;;;;;;6273284;22;20188;-80
2021/03/03 01:11:22;;;;;;;76.93;23.87;;;;;;;;;;6275320;22;20269;-80
2021/03/03 01:14:34;;;;;;;72.23;23.37;;;;;;;;;;6267697;22;20221;-82
2021/03/03 01:17:40;;;;;;;74.47;25.17;;;;;;;;;;6266042;22;20169;-81
2021/03/03 01:20:45;;;;;;;69.47;23.20;;;;;;;;;;6289295;22;20232;-81
2021/03/03 01:23:49;;;;;;;75.60;24.47;;;;;;;;;;6266317;22;20173;-82
2021/03/03 01:26:54;;;;;;;69.60;23.57;;;;;;;;;;6286912;22;20249;-81
2021/03/03 01:29:59;;;;;;;71.70;23.70;;;;;;;;;;6278045;22;20193;-81
2021/03/03 01:33:07;;;;;;;76.87;24.67;;;;;;;;;;6275714;22;20170;-82
2021/03/03 01:36:11;;;;;;;68.00;22.47;;;;;;;;;;6270749;22;20220;-81
2021/03/03 01:39:16;;;;;;;69.73;23.67;;;;;;;;;;6275852;22;20218;-82
2021/03/03 01:42:20;;;;;;;84.57;25.50;;;;;;;;;;6288864;22;20224;-81
2021/03/03 01:45:25;;;;;;;75.27;23.77;;;;;;;;;;6288866;22;20588;-81
2021/03/03 01:48:31;;;;;;;81.33;25.03;;;;;;;;;;6271346;22;20169;-82
2021/03/03 01:51:36;;;;;;;79.07;24.83;;;;;;;;;;6290042;22;20182;-80
2021/03/03 01:54:40;;;;;;;77.03;24.37;;;;;;;;;;6280512;22;20243;-81
2021/03/03 01:57:45;;;;;;;70.43;24.40;;;;;;;;;;6269934;22;20622;-81
2021/03/03 02:00:49;;;;;;;81.83;24.93;;;;;;;;;;6269279;22;20169;-80
2021/03/03 02:03:55;;;;;;;80.97;24.63;;;;;;;;;;6271180;22;20164;-81
2021/03/03 02:07:03;;;;;;;75.97;24.33;;;;;;;;;;6269586;22;20224;-84
2021/03/03 02:10:12;;;;;;;75.30;24.43;;;;;;;;;;6288602;22;20173;-81
2021/03/03 02:13:19;;;;;;;84.40;26.30;;;;;;;;;;6289061;22;20169;-82
2021/03/03 02:16:25;;;;;;;75.40;25.33;;;;;;;;;;6269235;22;20202;-82
2021/03/03 02:19:32;;;;;;;76.60;24.67;;;;;;;;;;6273770;22;20150;-80
2021/03/03 02:22:44;;;;;;;79.37;25.13;;;;;;;;;;6276525;22;20177;-80
2021/03/03 02:25:50;;;;;;;75.27;25.10;;;;;;;;;;6274613;22;20197;-79
2021/03/03 02:28:55;;;;;;;80.03;24.70;;;;;;;;;;6273141;22;20341;-81
2021/03/03 02:32:00;;;;;;;81.90;24.67;;;;;;;;;;6269996;22;20719;-80
2021/03/03 02:35:05;;;;;;;70.17;24.67;;;;;;;;;;6275594;22;20213;-81
2021/03/03 02:38:09;;;;;;;79.03;25.03;;;;;;;;;;6271016;22;20178;-80
2021/03/03 02:41:17;;;;;;;89.23;26.53;;;;;;;;;;6297463;22;20173;-82
2021/03/03 02:44:22;;;;;;;81.00;26.10;;;;;;;;;;6270850;22;20192;-82
2021/03/03 02:47:26;;;;;;;90.57;27.23;;;;;;;;;;6268536;22;20174;-81
2021/03/03 02:50:31;;;;;;;80.03;26.47;;;;;;;;;;6271022;22;20521;-80
2021/03/03 02:53:36;;;;;;;89.10;27.37;;;;;;;;;;6288946;22;20170;-82
2021/03/03 02:56:42;;;;;;;79.30;27.70;;;;;;;;;;6268215;22;20283;-81
2021/03/03 02:59:47;;;;;;;85.40;27.50;;;;;;;;;;6268128;22;20220;-79
2021/03/03 03:02:54;;;;;;;99.43;27.40;;;;;;;;;;6276168;22;20182;-82
2021/03/03 03:06:00;;;;;;;85.03;27.67;;;;;;;;;;6277099;22;20209;-80
2021/03/03 03:09:07;;;;;;;98.57;29.40;;;;;;;;;;6292427;22;20182;-79
2021/03/03 03:12:13;;;;;;;89.70;28.47;;;;;;;;;;6274631;22;20174;-79
2021/03/03 03:15:21;;;;;;;88.30;28.57;;;;;;;;;;6292459;22;20244;-79
2021/03/03 03:18:28;;;;;;;153.53;30.03;;;;;;;;;;6281272;22;20181;-79
2021/03/03 03:21:32;;;;;;;91.13;27.40;;;;;;;;;;6297539;22;20193;-80
2021/03/03 03:24:38;;;;;;;89.23;27.90;;;;;;;;;;6283017;22;20150;-80
2021/03/03 03:27:44;;;;;;;110.87;28.53;;;;;;;;;;6294403;22;20181;-79
2021/03/03 03:30:50;;;;;;;93.47;28.17;;;;;;;;;;6274870;22;20324;-81
2021/03/03 03:33:56;;;;;;;85.47;27.93;;;;;;;;;;6300735;22;20201;-80
2021/03/03 03:37:01;;;;;;;93.03;28.37;;;;;;;;;;6291537;22;20246;-80
2021/03/03 03:40:06;;;;;;;101.70;30.10;;;;;;;;;;6285216;22;20250;-82
2021/03/03 03:43:12;;;;;;;99.67;27.80;;;;;;;;;;6290161;22;20226;-79
2021/03/03 03:46:17;;;;;;;91.73;28.30;;;;;;;;;;6267317;22;20201;-82
2021/03/03 03:49:22;;;;;;;89.47;28.33;;;;;;;;;;6268018;22;20197;-82
2021/03/03 03:52:27;;;;;;;88.23;27.93;;;;;;;;;;6286217;22;20225;-81
2021/03/03 03:55:32;;;;;;;98.10;28.97;;;;;;;;;;6271971;22;20213;-78
2021/03/03 03:58:38;;;;;;;103.53;30.57;;;;;;;;;;6278411;22;20153;-79
2021/03/03 04:02:08;;;;;;;91.20;28.00;;;;;;;;;;6304794;22;20154;-80
2021/03/03 04:05:14;;;;;;;94.80;28.87;;;;;;;;;;6293398;22;20165;-80
2021/03/03 04:08:22;;;;;;;95.73;28.17;;;;;;;;;;6290222;22;20226;-80
2021/03/03 04:11:26;;;;;;;94.37;30.50;;;;;;;;;;6269771;22;20222;-82
2021/03/03 04:14:32;;;;;;;138.30;31.47;;;;;;;;;;6268095;22;20568;-81
2021/03/03 04:17:37;;;;;;;109.47;32.33;;;;;;;;;;6283804;22;20193;-81
2021/03/03 04:20:47;;;;;;;133.63;29.60;;;;;;;;;;6305367;22;20212;-80
2021/03/03 04:23:51;;;;;;;96.23;29.50;;;;;;;;;;6287262;22;20217;-80
2021/03/03 04:26:57;;;;;;;279.87;31.90;;;;;;;;;;6305082;22;20185;-79
2021/03/03 04:30:03;;;;;;;306.42;42.05;;;;;;;;;;6302342;22;20409;-81
2021/03/03 04:33:12;;;;;;;275.70;34.50;;;;;;;;;;6280549;22;20428;-78
2021/03/03 04:36:17;;;;;;;158.73;32.90;;;;;;;;;;6293180;22;20206;-81
2021/03/03 04:39:21;;;;;;;331.07;35.00;;;;;;;;;;6267886;22;20253;-81
2021/03/03 04:42:27;;;;;;;223.97;32.47;;;;;;;;;;6289078;22;20562;-81
2021/03/03 04:45:32;;;;;;;141.80;31.97;;;;;;;;;;6253594;22;20205;-79
2021/03/03 04:48:37;;;;;;;139.17;30.80;;;;;;;;;;6284579;22;20170;-81
2021/03/03 04:51:41;;;;;;;160.83;31.37;;;;;;;;;;6266477;22;20173;-81
2021/03/03 04:54:46;;;;;;;122.13;30.20;;;;;;;;;;6267518;22;20190;-80
2021/03/03 04:57:50;;;;;;;143.40;28.60;;;;;;;;;;6268224;22;20216;-81
2021/03/03 05:00:56;;;;;;;148.53;30.40;;;;;;;;;;6267480;22;20685;-81
2021/03/03 05:04:00;;;;;;;126.40;29.10;;;;;;;;;;6268298;22;20234;-81
2021/03/03 05:07:05;;;;;;;168.90;29.60;;;;;;;;;;6288994;22;20251;-79
2021/03/03 05:10:09;;;;;;;114.37;29.80;;;;;;;;;;6267996;22;20288;-80
2021/03/03 05:13:15;;;;;;;128.93;31.00;;;;;;;;;;6291309;22;20173;-79
2021/03/03 05:16:21;;;;;;;152.30;31.57;;;;;;;;;;6267614;22;20237;-82
2021/03/03 05:19:26;;;;;;;120.77;31.33;;;;;;;;;;6268935;22;20649;-82
2021/03/03 05:22:30;;;;;;;101.70;28.93;;;;;;;;;;6271281;22;20221;-81
2021/03/03 05:25:35;;;;;;;160.43;30.37;;;;;;;;;;6265593;22;20205;-81
2021/03/03 05:28:40;;;;;;;140.30;31.40;;;;;;;;;;6286935;22;20675;-81
2021/03/03 05:31:45;;;;;;;140.50;28.43;;;;;;;;;;6285319;22;20288;-81
2021/03/03 05:34:49;;;;;;;107.60;29.30;;;;;;;;;;6265815;22;20316;-81
2021/03/03 05:37:54;;;;;;;106.33;29.83;;;;;;;;;;6274142;22;20173;-79
2021/03/03 05:40:59;;;;;;;113.37;29.73;;;;;;;;;;6288693;22;20197;-81
2021/03/03 05:44:04;;;;;;;126.50;30.17;;;;;;;;;;6291541;22;20174;-82
2021/03/03 05:47:09;;;;;;;113.70;29.87;;;;;;;;;;6270104;22;20545;-81
2021/03/03 05:50:16;;;;;;;107.73;28.97;;;;;;;;;;6271818;22;20217;-82
2021/03/03 05:53:21;;;;;;;94.50;26.90;;;;;;;;;;6286778;22;20598;-81
2021/03/03 05:56:26;;;;;;;100.60;27.37;;;;;;;;;;6265635;22;20197;-80
2021/03/03 05:59:32;;;;;;;90.47;24.83;;;;;;;;;;6273520;22;20239;-79
2021/03/03 06:02:38;;;;;;;115.60;27.17;;;;;;;;;;6267701;22;20220;-79
2021/03/03 06:05:42;;;;;;;83.57;27.07;;;;;;;;;;6266865;22;20220;-80
2021/03/03 06:08:48;;;;;;;107.27;27.17;;;;;;;;;;6267747;22;20185;-81
2021/03/03 06:11:53;;;;;;;101.13;27.00;;;;;;;;;;6291593;22;20174;-81
2021/03/03 06:14:58;;;;;;;108.83;28.27;;;;;;;;;;6293019;22;20238;-81
2021/03/03 06:18:05;;;;;;;95.30;25.93;;;;;;;;;;6290929;22;20226;-83
2021/03/03 06:21:25;;;;;;;88.47;24.77;;;;;;;;;;6272506;22;20205;-81
2021/03/03 06:24:34;;;;;;;109.80;26.80;;;;;;;;;;6290211;22;20177;-82
2021/03/03 06:27:40;;;;;;;86.20;25.30;;;;;;;;;;6271240;22;20185;-81
2021/03/03 06:30:45;;;;;;;73.67;25.13;;;;;;;;;;6271863;22;20237;-82
2021/03/03 06:33:51;;;;;;;94.83;23.80;;;;;;;;;;6264150;22;20630;-79
2021/03/03 06:37:00;;;;;;;99.20;24.23;;;;;;;;;;6261762;22;20206;-78
2021/03/03 06:40:08;;;;;;;98.83;25.33;;;;;;;;;;6280762;22;20264;-78
2021/03/03 06:43:19;;;;;;;118.77;25.03;;;;;;;;;;6267860;22;20627;-78
2021/03/03 06:46:23;;;;;;;122.33;25.93;;;;;;;;;;6285746;22;20619;-78
2021/03/03 06:49:29;;;;;;;97.33;24.80;;;;;;;;;;6263733;22;20173;-78
2021/03/03 06:52:40;;;;;;;90.03;25.00;;;;;;;;;;6281459;22;20174;-79
2021/03/03 06:55:46;;;;;;;70.97;23.43;;;;;;;;;;6282297;22;20190;-78
2021/03/03 06:58:50;;;;;;;85.47;23.87;;;;;;;;;;6281806;22;20198;-78
2021/03/03 07:01:56;;;;;;;83.37;22.70;;;;;;;;;;6280838;22;20201;-78
2021/03/03 07:05:02;;;;;;;74.77;24.87;;;;;;;;;;6262536;22;20197;-77
2021/03/03 07:08:06;;;;;;;75.70;25.10;;;;;;;;;;6260298;22;20178;-78
2021/03/03 07:11:20;;;;;;;79.00;23.33;;;;;;;;;;6265390;22;20208;-76
2021/03/03 07:14:24;;;;;;;65.70;22.53;;;;;;;;;;6259845;22;20280;-77
2021/03/03 07:17:32;;;;;;;55.23;20.93;;;;;;;;;;6275676;22;20166;-78
2021/03/03 07:20:46;;;;;;;59.73;21.47;;;;;;;;;;6258760;22;20216;-77
2021/03/03 07:23:51;;;;;;;62.77;21.90;;;;;;;;;;6257139;22;20232;-77
2021/03/03 07:26:55;;;;;;;58.20;20.93;;;;;;;;;;6266417;22;20208;-78
2021/03/03 07:30:01;;;;;;;52.80;19.53;;;;;;;;;;6262942;22;20223;-77
2021/03/03 07:33:06;;;;;;;49.97;19.73;;;;;;;;;;6260429;22;20516;-78
2021/03/03 07:36:14;;;;;;;49.30;18.97;;;;;;;;;;6260852;22;20255;-78
2021/03/03 07:39:19;;;;;;;54.70;21.97;;;;;;;;;;6258776;22;20210;-78
2021/03/03 07:42:25;;;;;;;54.70;19.77;;;;;;;;;;6278204;22;20710;-79
2021/03/03 07:45:36;;;;;;;52.80;20.83;;;;;;;;;;6262074;22;20510;-78
2021/03/03 07:48:41;;;;;;;57.47;21.57;;;;;;;;;;6275750;22;20635;-77
2021/03/03 07:51:46;;;;;;;58.73;20.97;;;;;;;;;;6275890;22;20523;-76
2021/03/03 07:54:51;;;;;;;51.70;20.67;;;;;;;;;;6275441;22;20278;-76
2021/03/03 07:57:57;;;;;;;80.47;28.73;;;;;;;;;;6277325;22;20212;-75
2021/03/03 08:01:02;;;;;;;68.23;25.80;;;;;;;;;;6278696;22;20173;-75
2021/03/03 08:04:07;;;;;;;58.17;20.73;;;;;;;;;;6276458;22;20201;-76
2021/03/03 08:07:19;;;;;;;61.83;21.43;;;;;;;;;;6257100;22;20565;-75
2021/03/03 08:10:24;;;;;;;58.60;21.37;;;;;;;;;;6257039;22;20174;-75
2021/03/03 08:13:35;;;;;;;57.17;23.13;;;;;;;;;;6276410;22;20202;-76
2021/03/03 08:16:53;;;;;;;60.40;22.47;;;;;;;;;;6258213;22;20189;-75
2021/03/03 08:20:02;;;;;;;58.13;21.87;;;;;;;;;;6278021;22;20181;-76
2021/03/03 08:23:07;;;;;;;50.93;20.60;;;;;;;;;;6257934;22;20194;-76
2021/03/03 08:26:31;;;;;;;57.83;21.30;;;;;;;;;;6258201;22;20619;-76
2021/03/03 08:29:35;;;;;;;53.53;20.57;;;;;;;;;;6256816;22;20174;-76
2021/03/03 08:32:40;;;;;;;58.63;22.63;;;;;;;;;;6276016;22;20170;-76
2021/03/03 08:35:44;;;;;;;51.67;20.73;;;;;;;;;;6276371;22;20236;-76
2021/03/03 08:39:11;;;;;;;61.80;22.93;;;;;;;;;;6277246;22;20174;-76
2021/03/03 08:42:29;;;;;;;59.73;21.60;;;;;;;;;;6276240;22;20260;-76
2021/03/03 08:45:33;;;;;;;51.43;21.10;;;;;;;;;;6275331;22;20246;-76
2021/03/03 08:48:38;;;;;;;55.17;22.57;;;;;;;;;;6275306;22;20174;-77
2021/03/03 08:51:44;;;;;;;56.80;21.53;;;;;;;;;;6275611;22;20224;-77
2021/03/03 08:54:49;;;;;;;49.53;19.67;;;;;;;;;;6275079;22;20209;-77
2021/03/03 08:57:54;;;;;;;57.30;21.37;;;;;;;;;;6276000;22;20169;-77
2021/03/03 09:00:58;;;;;;;57.40;21.57;;;;;;;;;;6275413;22;20177;-77
2021/03/03 09:04:03;;;;;;;59.73;20.80;;;;;;;;;;6275713;22;20212;-77
2021/03/03 09:07:08;;;;;;;50.13;20.87;;;;;;;;;;6275156;22;20182;-76
2021/03/03 09:10:17;;;;;;;51.67;20.60;;;;;;;;;;6256120;22;20235;-77
2021/03/03 09:13:22;;;;;;;54.33;22.00;;;;;;;;;;6255942;22;20288;-76
2021/03/03 09:16:26;;;;;;;56.73;22.40;;;;;;;;;;6255220;22;20197;-76
2021/03/03 09:19:31;;;;;;;55.67;21.70;;;;;;;;;;6256309;22;20174;-76
2021/03/03 09:22:36;;;;;;;59.73;21.40;;;;;;;;;;6256918;22;20224;-74
2021/03/03 09:25:41;;;;;;;62.20;22.63;;;;;;;;;;6275345;22;20673;-74
2021/03/03 09:28:45;;;;;;;55.07;20.97;;;;;;;;;;6275144;22;20173;-74
2021/03/03 09:31:50;;;;;;;52.63;22.10;;;;;;;;;;6255689;22;20197;-74
2021/03/03 09:34:54;;;;;;;60.57;22.20;;;;;;;;;;6274691;22;20213;-76
2021/03/03 09:37:59;;;;;;;58.87;21.87;;;;;;;;;;6255993;22;20246;-76
2021/03/03 09:41:11;;;;;;;56.10;22.30;;;;;;;;;;6274930;22;20635;-76
2021/03/03 09:44:17;;;;;;;57.50;23.53;;;;;;;;;;6256382;22;20718;-76
2021/03/03 09:47:25;;;;;;;58.37;23.17;;;;;;;;;;6257593;22;20178;-76
2021/03/03 09:50:30;;;;;;;57.97;24.43;;;;;;;;;;6277681;22;20217;-76
2021/03/03 09:53:34;;;;;;;52.50;23.17;;;;;;;;;;6277013;22;20256;-76
2021/03/03 09:56:39;;;;;;;62.07;23.80;;;;;;;;;;6258831;22;20236;-77
2021/03/03 09:59:45;;;;;;;59.73;24.10;;;;;;;;;;6264257;22;20173;-75
2021/03/03 10:02:51;;;;;;;61.53;23.60;;;;;;;;;;6280980;22;20513;-77
2021/03/03 10:05:55;;;;;;;57.20;21.63;;;;;;;;;;6260150;22;20165;-76
2021/03/03 10:09:01;;;;;;;59.40;24.70;;;;;;;;;;6280541;22;20189;-76
2021/03/03 10:12:14;;;;;;;61.60;25.47;;;;;;;;;;6261098;22;20170;-77
2021/03/03 10:15:21;;;;;;;86.47;26.40;;;;;;;;;;6261161;22;20257;-77
2021/03/03 10:18:25;;;;;;;58.37;24.20;;;;;;;;;;6277881;22;20173;-77
2021/03/03 10:21:31;;;;;;;61.33;24.73;;;;;;;;;;6259175;22;20185;-77
2021/03/03 10:24:36;;;;;;;55.97;23.27;;;;;;;;;;6278330;22;20213;-76
2021/03/03 10:27:42;;;;;;;66.40;24.80;;;;;;;;;;6259031;22;20170;-76
2021/03/03 10:30:47;;;;;;;70.40;26.43;;;;;;;;;;6258883;22;20170;-76
2021/03/03 10:33:51;;;;;;;62.17;24.53;;;;;;;;;;6259144;22;20216;-76
2021/03/03 10:36:55;;;;;;;57.43;22.67;;;;;;;;;;6259234;22;20166;-78
2021/03/03 10:40:10;;;;;;;64.97;24.43;;;;;;;;;;6278709;22;20170;-76
2021/03/03 10:43:16;;;;;;;61.17;23.87;;;;;;;;;;6277530;22;20173;-76
2021/03/03 10:46:23;;;;;;;55.30;23.13;;;;;;;;;;6258209;22;20165;-76
2021/03/03 10:49:28;;;;;;;58.57;23.40;;;;;;;;;;6277648;22;20178;-76
2021/03/03 10:52:32;;;;;;;60.03;25.07;;;;;;;;;;6260198;22;20245;-76
2021/03/03 10:55:38;;;;;;;56.97;23.93;;;;;;;;;;6278190;22;20189;-77
2021/03/03 10:58:43;;;;;;;63.67;22.77;;;;;;;;;;6278038;22;20293;-77
2021/03/03 11:01:50;;;;;;;60.03;24.60;;;;;;;;;;6278200;22;20170;-76
2021/03/03 11:04:55;;;;;;;68.70;24.77;;;;;;;;;;6277758;22;20201;-76
2021/03/03 11:07:59;;;;;;;71.57;24.50;;;;;;;;;;6258848;22;20642;-76
2021/03/03 11:11:05;;;;;;;59.57;24.67;;;;;;;;;;6277027;22;20228;-76
2021/03/03 11:14:10;;;;;;;58.93;24.33;;;;;;;;;;6257589;22;20736;-76
2021/03/03 11:17:15;;;;;;;61.40;24.80;;;;;;;;;;6258232;22;20162;-77
2021/03/03 11:20:20;;;;;;;57.23;24.53;;;;;;;;;;6277638;22;20174;-76
2021/03/03 11:23:24;;;;;;;61.23;24.87;;;;;;;;;;6258468;22;20247;-76
2021/03/03 11:26:29;;;;;;;65.07;23.33;;;;;;;;;;6260979;22;20173;-76
2021/03/03 11:29:38;;;;;;;57.42;24.45;;;;;;;;;;6291983;22;20197;-76
2021/03/03 11:32:43;;;;;;;48.10;21.77;;;;;;;;;;6289609;22;20301;-76
2021/03/03 11:35:48;;;;;;;57.93;23.37;;;;;;;;;;6281498;22;20192;-77
2021/03/03 11:38:52;;;;;;;49.05;22.20;;;;;;;;;;6277772;22;20224;-76
2021/03/03 11:41:56;;;;;;;53.95;22.90;;;;;;;;;;6257658;22;20177;-78
2021/03/03 11:45:01;;;;;;;53.35;22.70;;;;;;;;;;6276441;22;20247;-77
2021/03/03 11:48:06;;;;;;;59.97;22.75;;;;;;;;;;6277430;22;20236;-76
2021/03/03 11:51:10;;;;;;;59.55;21.38;;;;;;;;;;6257611;22;20178;-77
2021/03/03 11:54:15;;;;;;;53.22;20.73;;;;;;;;;;6258030;22;20544;-77
2021/03/03 11:57:20;;;;;;;52.28;21.73;;;;;;;;;;6276267;22;20619;-76
2021/03/03 12:00:25;;;;;;;60.70;22.88;;;;;;;;;;6276543;22;20177;-76
2021/03/03 12:03:30;;;;;;;59.95;23.95;;;;;;;;;;6260022;22;20257;-75
2021/03/03 12:06:34;;;;;;;48.88;22.08;;;;;;;;;;6258469;22;20536;-76
2021/03/03 12:09:39;;;;;;;53.70;23.95;;;;;;;;;;6275850;22;20196;-77
2021/03/03 12:12:44;;;;;;;58.63;21.95;;;;;;;;;;6275936;22;20194;-76
2021/03/03 12:15:50;;;;;;;48.97;21.75;;;;;;;;;;6256201;22;20278;-77
2021/03/03 12:18:54;;;;;;;54.20;21.95;;;;;;;;;;6274889;22;20674;-76
2021/03/03 12:21:58;;;;;;;48.78;21.00;;;;;;;;;;6257125;22;20288;-76
2021/03/03 12:25:04;;;;;;;49.30;21.95;;;;;;;;;;6275104;22;20324;-76
2021/03/03 12:28:09;;;;;;;49.28;21.23;;;;;;;;;;6275138;22;20177;-77
2021/03/03 12:31:14;;;;;;;56.47;22.00;;;;;;;;;;6257934;22;20201;-76
2021/03/03 12:34:19;;;;;;;52.88;21.65;;;;;;;;;;6275651;22;20214;-78
2021/03/03 12:37:24;;;;;;;48.75;21.90;;;;;;;;;;6286056;22;20287;-90
2021/03/03 12:40:28;;;;;;;49.33;20.35;;;;;;;;;;6268716;22;20177;-90
2021/03/03 12:43:33;;;;;;;50.33;21.42;;;;;;;;;;6269308;22;20160;-91
2021/03/03 12:46:39;;;;;;;53.15;21.63;;;;;;;;;;6270940;22;20169;-90
2021/03/03 12:49:43;;;;;;;60.00;21.42;;;;;;;;;;6270787;22;20234;-89
2021/03/03 12:52:49;;;;;;;50.35;21.75;;;;;;;;;;6270786;22;20173;-89
2021/03/03 12:55:54;;;;;;;57.85;22.50;;;;;;;;;;6269740;22;20193;-90
2021/03/03 12:58:59;;;;;;;48.33;21.13;;;;;;;;;;6270954;22;20162;-90
2021/03/03 13:02:05;;;;;;;50.00;20.58;;;;;;;;;;6271463;22;20169;-90
2021/03/03 13:05:10;;;;;;;53.88;20.50;;;;;;;;;;6271229;22;20224;-91
2021/03/03 13:08:15;;;;;;;47.60;20.83;;;;;;;;;;6270162;22;20169;-91
2021/03/03 13:11:20;;;;;;;40.65;19.25;;;;;;;;;;6270214;22;20169;-90
2021/03/03 13:14:25;;;;;;;61.00;21.92;;;;;;;;;;6269650;22;20242;-89
2021/03/03 13:17:30;;;;;;;51.50;22.17;;;;;;;;;;6269067;22;20173;-90
2021/03/03 13:20:35;;;;;;;49.72;22.15;;;;;;;;;;6268989;22;20169;-89
2021/03/03 13:23:39;;;;;;;52.47;22.13;;;;;;;;;;6269733;22;20212;-91
2021/03/03 13:26:44;;;;;;;52.92;21.92;;;;;;;;;;6270627;22;20207;-91
2021/03/03 13:29:49;;;;;;;44.80;20.35;;;;;;;;;;6270384;22;20169;-91
2021/03/03 13:32:55;;;;;;;47.15;20.88;;;;;;;;;;6271158;22;20169;-90
2021/03/03 13:35:59;;;;;;;43.95;21.85;;;;;;;;;;6270843;22;20384;-91
2021/03/03 13:39:05;;;;;;;52.40;22.50;;;;;;;;;;6273397;22;20158;-91
2021/03/03 13:42:10;;;;;;;51.58;21.80;;;;;;;;;;6271947;22;20224;-91
2021/03/03 13:45:17;;;;;;;49.88;21.63;;;;;;;;;;6270894;22;20169;-90
2021/03/03 13:48:32;;;;;;;50.95;22.70;;;;;;;;;;6281229;22;20184;-91
2021/03/03 13:51:37;;;;;;;49.17;21.73;;;;;;;;;;6272679;22;20553;-90
2021/03/03 13:54:43;;;;;;;47.30;21.33;;;;;;;;;;6273205;22;20215;-91
2021/03/03 13:57:50;;;;;;;52.40;21.15;;;;;;;;;;6272588;22;20193;-92
2021/03/03 14:00:55;;;;;;;44.33;20.10;;;;;;;;;;6275879;22;20664;-92
2021/03/03 14:04:00;;;;;;;46.47;20.58;;;;;;;;;;6278751;22;20322;-91
2021/03/03 14:07:06;;;;;;;47.78;19.45;;;;;;;;;;6273684;22;20265;-90
2021/03/03 14:10:12;;;;;;;43.72;20.33;;;;;;;;;;6277194;22;20197;-91
2021/03/03 14:13:16;;;;;;;50.22;20.70;;;;;;;;;;6273607;22;20173;-89
2021/03/03 14:16:21;;;;;;;43.47;19.90;;;;;;;;;;6272488;22;20208;-90
2021/03/03 14:19:29;;;;;;;44.88;20.17;;;;;;;;;;6272613;22;20624;-89
2021/03/03 14:22:33;;;;;;;46.17;19.95;;;;;;;;;;6274856;22;20209;-91
2021/03/03 14:25:38;;;;;;;56.42;20.67;;;;;;;;;;6272913;22;20193;-90
2021/03/03 14:28:42;;;;;;;47.13;21.08;;;;;;;;;;6272652;22;20178;-89
2021/03/03 14:31:47;;;;;;;41.05;18.85;;;;;;;;;;6271369;22;20173;-89
2021/03/03 14:34:52;;;;;;;48.53;21.17;;;;;;;;;;6271733;22;20205;-90
2021/03/03 14:37:57;;;;;;;41.53;19.70;;;;;;;;;;6271823;22;20189;-90
2021/03/03 14:41:01;;;;;;;43.85;20.98;;;;;;;;;;6275097;22;20166;-90
2021/03/03 14:44:07;;;;;;;47.75;21.23;;;;;;;;;;6272934;22;20493;-89
2021/03/03 14:47:13;;;;;;;53.58;21.15;;;;;;;;;;6271419;22;20189;-90
2021/03/03 14:50:20;;;;;;;45.33;19.08;;;;;;;;;;6272141;22;20257;-90
2021/03/03 14:53:33;;;;;;;42.97;18.17;;;;;;;;;;6273754;22;20227;-92
2021/03/03 14:56:38;;;;;;;40.17;19.05;;;;;;;;;;6274936;22;20185;-90
2021/03/03 14:59:44;;;;;;;41.17;18.52;;;;;;;;;;6272675;22;20173;-91
2021/03/03 15:02:49;;;;;;;43.08;18.90;;;;;;;;;;6274109;22;20165;-89
2021/03/03 15:05:55;;;;;;;38.45;17.65;;;;;;;;;;6271642;22;20193;-90
2021/03/03 15:09:00;;;;;;;37.35;18.10;;;;;;;;;;6274108;22;20246;-89
2021/03/03 15:12:06;;;;;;;38.05;17.27;;;;;;;;;;6273410;22;20170;-89
2021/03/03 15:15:12;;;;;;;43.38;18.25;;;;;;;;;;6272901;22;20212;-91
2021/03/03 15:18:16;;;;;;;43.85;18.92;;;;;;;;;;6271980;22;20165;-91
2021/03/03 15:21:22;;;;;;;38.53;18.15;;;;;;;;;;6272828;22;20210;-91
2021/03/03 15:24:27;;;;;;;42.33;18.85;;;;;;;;;;6271920;22;20257;-91
2021/03/03 15:27:31;;;;;;;45.78;19.05;;;;;;;;;;6271621;22;20163;-90
2021/03/03 15:30:37;;;;;;;43.60;18.95;;;;;;;;;;6269958;22;20285;-90
2021/03/03 15:33:42;;;;;;;51.00;20.10;;;;;;;;;;6288135;22;20662;-88
2021/03/03 15:36:48;;;;;;;47.15;18.83;;;;;;;;;;6269675;22;20208;-90
2021/03/03 15:39:53;;;;;;;44.80;19.55;;;;;;;;;;6268996;22;20237;-91
2021/03/03 15:42:57;;;;;;;51.22;20.88;;;;;;;;;;6270073;22;20244;-90
2021/03/03 15:46:02;;;;;;;59.15;22.27;;;;;;;;;;6270595;22;20224;-91
2021/03/03 15:49:07;;;;;;;51.17;21.85;;;;;;;;;;6270818;22;20265;-90
2021/03/03 15:52:13;;;;;;;53.17;20.83;;;;;;;;;;6270350;22;20154;-90
2021/03/03 15:55:17;;;;;;;50.83;21.05;;;;;;;;;;6269799;22;20648;-90
2021/03/03 15:58:22;;;;;;;59.53;23.40;;;;;;;;;;6271265;22;20170;-90
2021/03/03 16:01:30;;;;;;;64.10;25.15;;;;;;;;;;6271553;22;20652;-90
2021/03/03 16:04:35;;;;;;;68.88;24.55;;;;;;;;;;6270931;22;20204;-89
2021/03/03 16:07:40;;;;;;;58.35;24.10;;;;;;;;;;6275280;22;20238;-90
2021/03/03 16:10:51;;;;;;;62.33;24.13;;;;;;;;;;6270990;22;20281;-91
2021/03/03 16:13:55;;;;;;;53.55;23.55;;;;;;;;;;6270366;22;20227;-90
2021/03/03 16:17:00;;;;;;;51.63;23.92;;;;;;;;;;6270292;22;20218;-90
2021/03/03 16:20:08;;;;;;;59.08;23.85;;;;;;;;;;6271489;22;20165;-89
2021/03/03 16:23:15;;;;;;;52.83;21.20;;;;;;;;;;6271744;22;20543;-90
2021/03/03 16:26:20;;;;;;;46.23;20.73;;;;;;;;;;6274191;22;20213;-88
2021/03/03 16:29:33;;;;;;;48.13;20.70;;;;;;;;;;6270946;22;20173;-90
2021/03/03 16:32:38;;;;;;;58.93;21.77;;;;;;;;;;6274622;22;20217;-90
2021/03/03 16:35:43;;;;;;;48.53;21.40;;;;;;;;;;6272693;22;20193;-90
2021/03/03 16:38:50;;;;;;;50.22;20.23;;;;;;;;;;6273358;22;20182;-90
2021/03/03 16:41:55;;;;;;;45.00;20.47;;;;;;;;;;6273857;22;20177;-90
2021/03/03 16:45:01;;;;;;;47.88;20.83;;;;;;;;;;6271385;22;20209;-92
2021/03/03 16:48:06;;;;;;;47.57;19.73;;;;;;;;;;6271868;22;20193;-90
2021/03/03 16:51:14;;;;;;;56.40;21.10;;;;;;;;;;6272563;22;20224;-91
2021/03/03 16:54:40;;;;;;;49.73;21.47;;;;;;;;;;6275992;22;20170;-89
2021/03/03 16:57:45;;;;;;;43.60;19.93;;;;;;;;;;6273302;22;20672;-90
2021/03/03 17:00:49;;;;;;;50.93;20.93;;;;;;;;;;6272745;22;20169;-89
2021/03/03 17:07:14;;;;;;;59.40;23.03;;;;;;;;;;6272661;22;20209;-90
2021/03/03 17:10:20;;;;;;;63.60;25.07;;;;;;;;;;6271353;22;20174;-91
2021/03/03 17:13:38;;;;;;;55.80;22.57;;;;;;;;;;6274933;22;20189;-90
2021/03/03 17:16:43;;;;;;;56.43;23.33;;;;;;;;;;6272442;22;20166;-91
2021/03/03 17:19:47;;;;;;;54.50;23.27;;;;;;;;;;6274259;22;20185;-90
2021/03/03 17:22:53;;;;;;;57.77;25.07;;;;;;;;;;6272935;22;20197;-91
2021/03/03 17:25:59;;;;;;;58.43;26.33;;;;;;;;;;6275682;22;20246;-90
2021/03/03 17:29:04;;;;;;;68.07;25.47;;;;;;;;;;6273822;22;20189;-91
2021/03/03 17:32:10;;;;;;;55.60;24.17;;;;;;;;;;6270549;22;20199;-90
2021/03/03 17:35:14;;;;;;;57.17;24.23;;;;;;;;;;6270311;22;20173;-89
2021/03/03 17:38:19;;;;;;;56.10;24.57;;;;;;;;;;6270712;22;20234;-90
2021/03/03 17:41:24;;;;;;;52.43;23.23;;;;;;;;;;6272352;22;20624;-90
2021/03/03 17:44:29;;;;;;;75.53;32.37;;;;;;;;;;6272322;22;20189;-90
2021/03/03 17:47:34;;;;;;;63.10;24.40;;;;;;;;;;6274841;22;20158;-91
2021/03/03 17:50:42;;;;;;;67.33;24.00;;;;;;;;;;6272861;22;20208;-92
2021/03/03 17:53:51;;;;;;;55.40;22.33;;;;;;;;;;6272308;22;20244;-90
2021/03/03 18:01:14;;;;;;;58.17;22.10;;;;;;;;;;6290454;22;20174;-91
2021/03/03 18:04:18;;;;;;;62.73;25.37;;;;;;;;;;6271814;22;20197;-91
2021/03/03 18:07:23;;;;;;;51.13;22.03;;;;;;;;;;6272315;22;20212;-91